Time;durP1;ratioP1;P1;durP2;ratioP2;P2;SDS_P1;SDS_P2;PMS_P1;PMS_P2;Temp;Humidity;BMP_temperature;BMP_pressure;BME280_temperature;BME280_humidity;BME280_pressure;Samples;Min_cycle;Max_cycle;Signal;HPM_P1;HPM_P2
2023/05/05 00:00:19;;;;;;;13.05;7.55;;;;;;;16.49;75.63;101310.16;5090532;28;20059;-72
2023/05/05 00:02:45;;;;;;;12.85;8.02;;;;;;;16.44;75.88;101310.81;5090558;28;20517;-71
2023/05/05 00:05:11;;;;;;;15.32;8.27;;;;;;;16.52;75.85;101320.47;5090284;28;20028;-71
2023/05/05 00:07:36;;;;;;;14.48;8.10;;;;;;;16.55;76.45;101322.72;5090508;28;20059;-71
2023/05/05 00:10:02;;;;;;;17.42;9.60;;;;;;;16.55;75.54;101311.94;5090291;28;20036;-71
2023/05/05 00:12:28;;;;;;;20.77;8.45;;;;;;;16.63;76.29;101324.28;5089025;28;20052;-71
2023/05/05 00:14:53;;;;;;;13.95;7.60;;;;;;;16.63;76.39;101332.34;5090109;28;20028;-71
2023/05/05 00:17:18;;;;;;;19.20;9.65;;;;;;;16.62;76.97;101326.16;5090101;28;20581;-71
2023/05/05 00:19:44;;;;;;;12.63;8.00;;;;;;;16.51;77.51;101309.94;5090065;28;20024;-71
2023/05/05 00:22:09;;;;;;;17.15;8.32;;;;;;;16.51;79.16;101308.06;5090163;28;20039;-71
2023/05/05 00:24:35;;;;;;;15.95;9.13;;;;;;;16.47;78.92;101314.94;5089866;28;20055;-71
2023/05/05 00:27:01;;;;;;;15.50;8.82;;;;;;;16.42;79.68;101326.38;5088671;28;20535;-71
2023/05/05 00:29:26;;;;;;;17.40;9.52;;;;;;;16.38;80.52;101321.69;5089943;28;20028;-71
2023/05/05 00:31:52;;;;;;;13.13;8.13;;;;;;;16.30;81.30;101312.03;5090031;28;20070;-71
2023/05/05 00:34:17;;;;;;;21.42;9.10;;;;;;;16.42;80.98;101328.25;5088586;28;20089;-71
2023/05/05 00:36:42;;;;;;;19.63;9.38;;;;;;;16.40;82.45;101319.56;5088579;28;20055;-71
2023/05/05 00:39:08;;;;;;;16.23;10.45;;;;;;;16.47;82.65;101330.28;5088604;28;20110;-71
2023/05/05 00:41:34;;;;;;;14.27;8.80;;;;;;;16.51;82.94;101336.88;5089879;28;20151;-71
2023/05/05 00:43:59;;;;;;;16.85;9.00;;;;;;;16.52;84.22;101339.31;5089848;28;20036;-71
2023/05/05 00:46:28;;;;;;;20.02;9.85;;;;;;;16.52;84.40;101336.63;5089790;28;20028;-71
2023/05/05 00:48:54;;;;;;;18.67;10.98;;;;;;;16.52;85.62;101333.13;5089816;28;20586;-72
2023/05/05 00:51:20;;;;;;;16.17;9.32;;;;;;;16.46;85.94;101323.25;5089336;28;20045;-71
2023/05/05 00:53:49;;;;;;;20.42;10.57;;;;;;;16.44;86.65;101318.91;5089745;28;20054;-71
2023/05/05 00:56:16;;;;;;;18.83;11.13;;;;;;;16.35;88.02;101311.34;5089608;28;20055;-71
2023/05/05 00:58:43;;;;;;;20.70;11.25;;;;;;;16.30;88.22;101322.78;5089555;28;21022;-71
2023/05/05 01:01:09;;;;;;;24.70;12.30;;;;;;;16.25;88.80;101333.41;5089498;28;20032;-71
2023/05/05 01:03:40;;;;;;;21.08;12.20;;;;;;;16.22;89.99;101355.38;5089389;28;20038;-71
2023/05/05 01:06:20;;;;;;;19.65;10.63;;;;;;;16.19;89.16;101353.97;5089612;28;20705;-71
2023/05/05 01:09:04;;;;;;;18.20;11.10;;;;;;;16.10;89.28;101344.50;5089565;28;20032;-71
2023/05/05 01:12:07;;;;;;;17.40;10.35;;;;;;;16.18;88.94;101349.59;5089582;28;20031;-71
2023/05/05 01:14:43;;;;;;;19.20;12.15;;;;;;;16.14;89.69;101352.97;5088102;28;20035;-72
2023/05/05 01:17:20;;;;;;;20.40;10.90;;;;;;;16.06;89.80;101348.69;5089305;28;20020;-72
2023/05/05 01:19:58;;;;;;;22.15;11.35;;;;;;;16.08;90.24;101359.22;5089408;28;20051;-72
2023/05/05 01:22:38;;;;;;;18.42;10.93;;;;;;;15.97;90.94;101352.69;5089499;28;20028;-71
2023/05/05 01:25:38;;;;;;;17.35;9.82;;;;;;;15.98;89.48;101359.72;5089529;28;20052;-71
2023/05/05 01:28:09;;;;;;;18.23;9.18;;;;;;;15.93;91.09;101365.78;5089168;28;20036;-71
2023/05/05 01:30:47;;;;;;;16.83;9.95;;;;;;;15.92;89.86;101366.78;5089445;28;20024;-71
2023/05/05 01:33:17;;;;;;;17.23;9.73;;;;;;;15.90;90.58;101368.06;5089223;28;20139;-71
2023/05/05 01:35:49;;;;;;;19.38;10.00;;;;;;;15.86;90.05;101365.00;5088845;28;20118;-71
2023/05/05 01:38:18;;;;;;;17.05;9.27;;;;;;;15.87;90.63;101369.31;5089256;28;20038;-72
2023/05/05 01:41:13;;;;;;;16.67;9.65;;;;;;;15.86;89.63;101373.06;5089291;28;20475;-71
2023/05/05 01:43:42;;;;;;;16.02;8.82;;;;;;;15.82;89.92;101363.78;5089168;28;20539;-71
2023/05/05 01:46:09;;;;;;;17.95;9.45;;;;;;;15.82;89.18;101357.56;5089357;28;20032;-71
2023/05/05 01:48:35;;;;;;;15.15;9.13;;;;;;;15.83;88.63;101356.56;5089204;28;20114;-71
2023/05/05 01:51:02;;;;;;;15.90;8.10;;;;;;;15.82;88.39;101346.81;5089281;28;20028;-71
2023/05/05 01:53:29;;;;;;;12.82;7.22;;;;;;;15.78;88.07;101339.19;5104367;28;20480;-71
2023/05/05 01:55:56;;;;;;;12.48;6.32;;;;;;;15.80;87.12;101332.75;5088738;28;20379;-71
2023/05/05 01:58:23;;;;;;;16.40;9.25;;;;;;;15.75;88.26;101330.75;5088889;28;20056;-71
2023/05/05 02:00:50;;;;;;;15.93;7.90;;;;;;;15.74;87.71;101335.28;5089092;28;20039;-71
2023/05/05 02:03:17;;;;;;;14.68;8.25;;;;;;;15.66;88.02;101340.09;5104661;28;20101;-71
2023/05/05 02:05:46;;;;;;;14.40;8.18;;;;;;;15.60;88.78;101343.66;5092766;28;20043;-71
2023/05/05 02:08:11;;;;;;;10.95;6.25;;;;;;;15.57;88.00;101343.03;5092581;28;20048;-71
2023/05/05 02:10:41;;;;;;;12.05;6.53;;;;;;;15.54;87.38;101348.03;5107817;28;20063;-71
2023/05/05 02:13:09;;;;;;;12.00;6.63;;;;;;;15.48;88.67;101348.88;5092594;28;20416;-71
2023/05/05 02:15:37;;;;;;;13.48;6.60;;;;;;;15.41;88.20;101342.75;5092446;28;20032;-71
2023/05/05 02:18:06;;;;;;;12.07;6.65;;;;;;;15.41;88.41;101357.00;5092548;28;20028;-71
2023/05/05 02:20:32;;;;;;;11.10;6.28;;;;;;;15.33;88.81;101354.59;5092444;28;20032;-71
2023/05/05 02:22:58;;;;;;;14.38;7.47;;;;;;;15.24;89.36;101370.13;5092385;28;20475;-71
2023/05/05 02:25:29;;;;;;;13.27;6.43;;;;;;;15.17;89.94;101361.28;5092424;28;20028;-71
2023/05/05 02:27:58;;;;;;;13.18;6.63;;;;;;;15.10;89.06;101355.94;5092362;28;20040;-71
2023/05/05 02:30:26;;;;;;;12.63;6.22;;;;;;;15.01;90.17;101353.69;5092332;28;20028;-71
2023/05/05 02:33:00;;;;;;;9.75;6.05;;;;;;;14.93;90.34;101362.00;5092370;28;20024;-71
2023/05/05 02:35:34;;;;;;;12.02;6.72;;;;;;;14.87;90.98;101358.31;5092112;28;20471;-71
2023/05/05 02:38:03;;;;;;;10.68;6.25;;;;;;;14.76;92.10;101373.22;5092205;28;20032;-71
2023/05/05 02:40:32;;;;;;;11.85;5.97;;;;;;;14.69;91.61;101356.28;5092254;28;20032;-71
2023/05/05 02:43:02;;;;;;;13.43;6.97;;;;;;;14.66;91.72;101362.91;5092137;28;20050;-71
2023/05/05 02:45:27;;;;;;;13.02;7.00;;;;;;;14.62;91.97;101374.31;5092086;28;20031;-71
2023/05/05 02:47:53;;;;;;;11.10;5.93;;;;;;;14.50;92.57;101371.41;5091676;28;20040;-71
2023/05/05 02:50:19;;;;;;;13.30;6.63;;;;;;;14.40;93.32;101379.88;5091874;28;20032;-71
2023/05/05 02:52:44;;;;;;;13.50;6.57;;;;;;;14.35;93.57;101381.53;5091969;28;20052;-71
2023/05/05 02:55:10;;;;;;;10.77;6.35;;;;;;;14.27;93.56;101389.81;5091680;28;20407;-71
2023/05/05 02:57:51;;;;;;;10.60;5.75;;;;;;;14.19;93.58;101399.69;5091553;28;20043;-72
2023/05/05 03:00:48;;;;;;;14.60;6.88;;;;;;;14.16;93.89;101396.63;5091773;28;20115;-71
2023/05/05 03:04:11;;;;;;;11.20;6.57;;;;;;;14.11;93.13;101393.72;5091577;28;20135;-71
2023/05/05 03:06:42;;;;;;;12.98;5.97;;;;;;;14.02;93.41;101393.13;5009120;28;20059;-71
2023/05/05 03:09:24;;;;;;;7.25;4.75;;;;;;;13.95;92.88;101378.88;5009144;28;20029;-71
2023/05/05 03:11:59;;;;;;;8.27;4.78;;;;;;;13.89;93.13;101385.91;5059379;28;20036;-71
2023/05/05 03:14:27;;;;;;;10.10;5.15;;;;;;;13.86;93.86;101391.66;5091050;28;20020;-71
2023/05/05 03:16:55;;;;;;;8.70;4.75;;;;;;;13.79;94.15;101385.47;5091295;28;20086;-71
2023/05/05 03:19:22;;;;;;;8.60;4.85;;;;;;;13.74;94.00;101387.94;5091670;28;20544;-71
2023/05/05 03:21:47;;;;;;;10.43;4.25;;;;;;;13.70;94.17;101394.72;5091270;28;20024;-71
2023/05/05 03:24:14;;;;;;;9.35;4.03;;;;;;;13.62;94.79;101389.56;5091101;28;20092;-71
2023/05/05 03:26:40;;;;;;;7.47;3.88;;;;;;;13.56;95.02;101405.41;5091016;28;20425;-71
2023/05/05 03:29:05;;;;;;;10.73;5.72;;;;;;;13.54;95.17;101404.78;5091233;28;20028;-72
2023/05/05 03:31:31;;;;;;;5.65;3.75;;;;;;;13.52;95.13;101400.69;5089592;28;20131;-71
2023/05/05 03:33:57;;;;;;;8.35;4.20;;;;;;;13.50;95.57;101400.06;5090963;28;20118;-71
2023/05/05 03:36:22;;;;;;;8.02;4.28;;;;;;;13.47;96.30;101405.84;5090986;28;20043;-71
2023/05/05 03:38:47;;;;;;;9.02;4.80;;;;;;;13.43;95.89;101416.09;5090996;28;20028;-72
2023/05/05 03:41:13;;;;;;;7.97;4.07;;;;;;;13.40;96.44;101415.69;5089539;28;20125;-71
2023/05/05 03:43:38;;;;;;;10.27;4.55;;;;;;;13.36;96.65;101418.78;5090813;28;20036;-72
2023/05/05 03:46:04;;;;;;;8.75;3.85;;;;;;;13.30;97.15;101411.53;5090767;28;20032;-71
2023/05/05 03:48:30;;;;;;;7.57;4.55;;;;;;;13.25;97.25;101408.59;5090630;28;20173;-71
2023/05/05 03:50:55;;;;;;;8.48;4.40;;;;;;;13.23;97.35;101409.81;5090797;28;20115;-71
2023/05/05 03:53:21;;;;;;;7.65;3.97;;;;;;;13.14;97.79;101407.31;5090645;28;20165;-71
2023/05/05 03:55:46;;;;;;;8.82;4.47;;;;;;;13.11;97.86;101404.22;5089290;28;20032;-71
2023/05/05 03:58:12;;;;;;;7.70;3.90;;;;;;;13.11;98.49;101414.94;5090322;28;20059;-71
2023/05/05 04:00:37;;;;;;;9.52;4.95;;;;;;;13.10;98.58;101424.00;5090447;28;20028;-71
2023/05/05 04:03:02;;;;;;;8.50;4.70;;;;;;;12.99;99.13;101416.53;5090523;28;20055;-72
2023/05/05 04:05:28;;;;;;;13.38;6.18;;;;;;;13.03;100.00;101426.63;5090533;28;20031;-71
2023/05/05 04:07:53;;;;;;;14.13;6.15;;;;;;;12.96;100.00;101424.94;5088760;28;20067;-71
2023/05/05 04:10:19;;;;;;;12.48;6.43;;;;;;;12.92;100.00;101413.81;5090301;28;20023;-71
2023/05/05 04:12:45;;;;;;;13.68;6.85;;;;;;;13.00;100.00;101428.91;5090222;28;20032;-71
2023/05/05 04:15:10;;;;;;;14.73;7.28;;;;;;;12.94;100.00;101419.78;5090020;28;20052;-71
2023/05/05 04:17:35;;;;;;;17.02;8.52;;;;;;;13.02;100.00;101438.38;5088645;28;20121;-71
2023/05/05 04:20:01;;;;;;;14.32;7.55;;;;;;;13.00;100.00;101440.44;5090034;28;20097;-71
2023/05/05 04:22:27;;;;;;;14.25;8.15;;;;;;;13.01;100.00;101452.78;5090098;28;20032;-71
2023/05/05 04:24:52;;;;;;;14.88;8.07;;;;;;;12.98;100.00;101449.69;5090158;28;20028;-71
2023/05/05 04:27:17;;;;;;;14.65;8.63;;;;;;;12.92;100.00;101436.06;5087985;28;20032;-71
2023/05/05 04:29:43;;;;;;;19.65;9.82;;;;;;;13.00;100.00;101445.78;5089890;28;20240;-72
2023/05/05 04:32:08;;;;;;;22.00;10.98;;;;;;;13.03;100.00;101455.28;5089934;28;20032;-71
2023/05/05 04:34:33;;;;;;;15.38;8.75;;;;;;;13.09;100.00;101452.63;5089918;28;20093;-71
2023/05/05 04:36:59;;;;;;;16.08;9.73;;;;;;;13.20;100.00;101451.22;5089751;28;20035;-71
2023/05/05 04:39:24;;;;;;;13.18;8.25;;;;;;;13.58;100.00;101451.63;5089798;28;20027;-71
2023/05/05 04:41:49;;;;;;;16.58;9.20;;;;;;;13.94;99.82;101460.38;5089756;28;20115;-71
2023/05/05 04:44:15;;;;;;;21.40;10.80;;;;;;;13.82;98.84;101446.72;5088421;28;20059;-71
2023/05/05 04:46:40;;;;;;;15.95;9.43;;;;;;;13.89;99.18;101457.47;5088641;28;20035;-71
2023/05/05 04:49:06;;;;;;;16.90;9.07;;;;;;;14.11;98.90;101447.38;5089630;28;20074;-71
2023/05/05 04:51:31;;;;;;;17.65;9.57;;;;;;;14.36;97.08;101456.47;5089561;28;20119;-71
2023/05/05 04:53:57;;;;;;;17.45;9.75;;;;;;;14.30;96.73;101457.28;5088161;28;20176;-72
2023/05/05 04:56:22;;;;;;;15.57;9.52;;;;;;;14.25;96.82;101457.06;5089794;28;20036;-72
2023/05/05 04:58:48;;;;;;;21.88;10.48;;;;;;;14.10;97.15;101445.75;5089468;28;20078;-71
2023/05/05 05:01:14;;;;;;;18.13;10.98;;;;;;;13.99;97.74;101444.47;5089362;28;20493;-71
2023/05/05 05:03:41;;;;;;;21.08;11.25;;;;;;;13.90;98.22;101459.13;5089476;28;20103;-72
2023/05/05 05:06:07;;;;;;;21.67;10.10;;;;;;;13.80;98.95;101449.59;5088175;28;20028;-72
2023/05/05 05:08:32;;;;;;;16.95;9.73;;;;;;;13.71;99.86;101455.38;5089962;28;20540;-76
2023/05/05 05:10:58;;;;;;;20.75;12.52;;;;;;;13.66;100.00;101458.66;5090389;28;20024;-76
2023/05/05 05:13:24;;;;;;;17.67;10.57;;;;;;;13.68;100.00;101461.97;5089726;28;21026;-74
2023/05/05 05:15:49;;;;;;;17.75;10.40;;;;;;;13.67;100.00;101454.09;5081971;28;20077;-74
2023/05/05 05:18:14;;;;;;;20.65;10.45;;;;;;;13.77;100.00;101457.22;5082754;28;20035;-77
2023/05/05 05:20:40;;;;;;;19.48;10.85;;;;;;;13.75;100.00;101453.91;5082940;28;20059;-73
2023/05/05 05:23:05;;;;;;;19.35;10.40;;;;;;;13.78;100.00;101462.41;5082078;28;20020;-80
2023/05/05 05:25:30;;;;;;;20.98;10.13;;;;;;;13.81;100.00;101450.44;5080774;28;20024;-79
2023/05/05 05:27:56;;;;;;;20.83;11.25;;;;;;;13.91;100.00;101441.97;5081363;28;20382;-74
2023/05/05 05:30:21;;;;;;;20.67;12.43;;;;;;;14.03;100.00;101453.78;5082545;28;20043;-80
2023/05/05 05:32:47;;;;;;;19.15;10.98;;;;;;;14.18;99.61;101451.72;5080738;28;20023;-75
2023/05/05 05:35:12;;;;;;;18.58;11.55;;;;;;;14.46;99.24;101459.56;5082566;28;20034;-72
2023/05/05 05:37:37;;;;;;;19.42;11.57;;;;;;;14.71;96.77;101461.63;5083302;28;20395;-69
2023/05/05 05:40:04;;;;;;;18.63;10.82;;;;;;;14.88;95.50;101453.94;5084542;28;20394;-68
2023/05/05 05:42:30;;;;;;;18.42;10.80;;;;;;;15.05;93.83;101465.88;5086129;28;20480;-74
2023/05/05 05:44:57;;;;;;;21.02;11.93;;;;;;;15.17;93.87;101462.53;5084149;28;20040;-73
2023/05/05 05:47:23;;;;;;;21.70;11.40;;;;;;;15.21;94.29;101459.22;5083871;28;20031;-72
2023/05/05 05:49:48;;;;;;;19.23;10.82;;;;;;;15.32;93.23;101465.78;5092767;28;20482;-74
2023/05/05 05:52:14;;;;;;;20.98;12.90;;;;;;;15.53;92.10;101467.34;5086553;28;20032;-74
2023/05/05 05:54:39;;;;;;;19.90;10.30;;;;;;;15.60;91.36;101459.28;5084318;28;20098;-74
2023/05/05 05:57:05;;;;;;;19.52;10.20;;;;;;;15.76;90.81;101469.53;5084558;28;20444;-74
2023/05/05 05:59:31;;;;;;;21.23;11.10;;;;;;;15.84;91.34;101476.53;5085965;28;20063;-74
2023/05/05 06:01:56;;;;;;;21.13;11.15;;;;;;;15.99;90.58;101474.38;5086146;28;20032;-74
2023/05/05 06:04:21;;;;;;;18.48;11.80;;;;;;;16.36;89.29;101490.66;5086101;28;20050;-74
2023/05/05 06:06:47;;;;;;;20.60;11.15;;;;;;;16.50;88.82;101492.19;5084924;28;20036;-76
2023/05/05 06:09:13;;;;;;;17.75;9.80;;;;;;;16.54;88.25;101500.69;5085438;28;20982;-76
2023/05/05 06:11:38;;;;;;;18.27;11.52;;;;;;;16.48;87.89;101515.00;5083161;28;20082;-75
2023/05/05 06:14:04;;;;;;;17.67;10.20;;;;;;;16.40;87.88;101522.31;5084487;28;20123;-76
2023/05/05 06:16:29;;;;;;;19.83;10.40;;;;;;;16.58;89.15;101521.56;5084119;28;20486;-76
2023/05/05 06:18:54;;;;;;;19.08;11.80;;;;;;;16.79;86.64;101517.69;5085531;28;20044;-72
2023/05/05 06:21:20;;;;;;;18.45;11.23;;;;;;;16.83;87.62;101518.06;5086136;28;20028;-72
2023/05/05 06:23:46;;;;;;;17.42;10.23;;;;;;;16.82;87.24;101519.09;5086210;28;20454;-72
2023/05/05 06:26:11;;;;;;;19.48;10.95;;;;;;;16.71;88.02;101517.91;5085580;28;20029;-72
2023/05/05 06:28:37;;;;;;;18.75;11.23;;;;;;;16.63;88.95;101520.88;5084394;28;20154;-75
2023/05/05 06:31:02;;;;;;;20.42;12.27;;;;;;;16.65;88.70;101530.41;5083887;28;20036;-76
2023/05/05 06:33:28;;;;;;;18.80;11.02;;;;;;;16.62;89.22;101532.72;5083267;28;20052;-76
2023/05/05 06:35:53;;;;;;;22.00;11.98;;;;;;;16.56;91.26;101533.59;5084434;28;20028;-76
2023/05/05 06:38:18;;;;;;;21.35;12.05;;;;;;;16.62;91.77;101528.16;5082594;28;20028;-76
2023/05/05 06:40:49;;;;;;;20.67;11.63;;;;;;;16.62;90.94;101527.31;5084345;28;20032;-72
2023/05/05 06:43:15;;;;;;;21.35;11.57;;;;;;;16.60;90.92;101530.22;5085321;28;20036;-72
2023/05/05 06:45:41;;;;;;;27.30;13.75;;;;;;;16.59;91.32;101531.28;5084950;28;20042;-71
2023/05/05 06:48:06;;;;;;;20.23;11.23;;;;;;;16.58;90.63;101534.19;5085318;28;20633;-70
2023/05/05 06:50:32;;;;;;;27.20;12.80;;;;;;;16.60;90.62;101530.22;5084015;28;20028;-72
2023/05/05 06:52:57;;;;;;;22.00;12.00;;;;;;;16.74;93.40;101536.34;5084483;28;20031;-76
2023/05/05 06:55:22;;;;;;;24.00;14.18;;;;;;;16.80;92.63;101526.59;5080963;28;20060;-75
2023/05/05 06:57:48;;;;;;;23.15;11.95;;;;;;;16.74;93.20;101530.13;5082669;28;20119;-74
2023/05/05 07:00:15;;;;;;;21.15;11.45;;;;;;;16.67;91.38;101527.50;5081472;28;20067;-71
2023/05/05 07:02:41;;;;;;;20.63;11.15;;;;;;;16.73;90.28;101529.28;5084337;28;20441;-74
2023/05/05 07:05:06;;;;;;;18.13;9.90;;;;;;;16.82;92.31;101527.16;5083032;28;20020;-74
2023/05/05 07:07:32;;;;;;;20.75;10.52;;;;;;;16.93;90.70;101533.72;5083733;28;20059;-71
2023/05/05 07:09:57;;;;;;;19.85;10.15;;;;;;;17.00;91.12;101538.00;5085221;28;20366;-71
2023/05/05 07:12:23;;;;;;;20.92;10.65;;;;;;;17.09;91.38;101538.53;5084383;28;20028;-74
2023/05/05 07:14:48;;;;;;;20.98;10.98;;;;;;;17.11;88.92;101539.13;5083898;28;20924;-71
2023/05/05 07:17:13;;;;;;;21.40;9.73;;;;;;;17.06;88.56;101533.59;5083192;28;20125;-74
2023/05/05 07:19:39;;;;;;;14.57;7.85;;;;;;;17.09;86.37;101541.22;5082430;28;20036;-74
2023/05/05 07:22:04;;;;;;;18.77;9.80;;;;;;;17.11;87.02;101536.44;5083952;28;20028;-74
2023/05/05 07:24:30;;;;;;;17.98;9.70;;;;;;;17.21;86.54;101541.28;5083492;28;20016;-71
2023/05/05 07:26:56;;;;;;;18.00;10.55;;;;;;;17.45;87.02;101550.38;5084629;28;20016;-75
2023/05/05 07:29:21;;;;;;;16.38;8.55;;;;;;;17.58;84.47;101549.38;5082029;28;20028;-76
2023/05/05 07:31:47;;;;;;;14.13;7.28;;;;;;;17.71;82.46;101549.22;5083729;28;20028;-71
2023/05/05 07:34:12;;;;;;;15.48;7.55;;;;;;;18.08;81.17;101554.59;5083828;28;20490;-72
2023/05/05 07:36:37;;;;;;;16.38;8.98;;;;;;;18.88;76.70;101550.66;5082562;28;20380;-73
2023/05/05 07:39:03;;;;;;;17.13;9.85;;;;;;;19.37;77.04;101543.09;5080945;28;20036;-77
2023/05/05 07:41:28;;;;;;;15.93;7.20;;;;;;;19.55;72.84;101551.06;5081388;28;20028;-73
2023/05/05 07:43:54;;;;;;;12.07;5.72;;;;;;;19.64;72.27;101551.50;5084076;28;20032;-72
2023/05/05 07:46:19;;;;;;;15.57;8.05;;;;;;;19.64;69.45;101555.00;5082908;28;21132;-74
2023/05/05 07:48:44;;;;;;;15.73;6.80;;;;;;;19.78;71.15;101546.63;5083415;28;20031;-74
2023/05/05 07:51:10;;;;;;;14.25;7.88;;;;;;;19.89;71.74;101543.91;5088003;28;20158;-75
2023/05/05 07:53:35;;;;;;;12.68;6.43;;;;;;;20.04;71.19;101543.38;5090655;28;20028;-75
2023/05/05 07:56:01;;;;;;;10.20;5.22;;;;;;;20.04;69.72;101547.94;5089522;28;20463;-75
2023/05/05 07:58:27;;;;;;;12.93;5.90;;;;;;;19.76;68.82;101546.91;5089428;28;20064;-74
2023/05/05 08:00:53;;;;;;;12.50;5.75;;;;;;;19.69;69.57;101532.69;5089192;28;20036;-75
2023/05/05 08:03:22;;;;;;;9.48;5.65;;;;;;;19.57;68.87;101535.41;5089405;28;20074;-75
2023/05/05 08:05:48;;;;;;;12.68;5.28;;;;;;;19.58;68.97;101541.63;5089690;28;20056;-74
2023/05/05 08:08:14;;;;;;;13.43;6.38;;;;;;;19.85;69.89;101533.78;5089702;28;20063;-74
2023/05/05 08:10:39;;;;;;;15.00;7.30;;;;;;;20.20;68.17;101536.34;5088402;28;20054;-75
2023/05/05 08:13:04;;;;;;;12.23;6.38;;;;;;;20.47;68.89;101528.38;5088400;28;20074;-75
2023/05/05 08:15:30;;;;;;;12.35;5.57;;;;;;;21.77;63.02;101535.34;5088656;28;20039;-75
2023/05/05 08:17:55;;;;;;;16.02;7.20;;;;;;;22.52;61.54;101531.75;5090572;28;20028;-75
2023/05/05 08:20:21;;;;;;;10.55;4.85;;;;;;;23.47;56.13;101525.50;5090497;28;20059;-75
2023/05/05 08:22:46;;;;;;;7.93;4.20;;;;;;;24.23;50.97;101521.34;5089891;28;20028;-75
2023/05/05 08:25:13;;;;;;;9.32;4.68;;;;;;;25.22;49.31;101529.97;5090384;28;20046;-75
2023/05/05 08:27:40;;;;;;;6.45;4.10;;;;;;;26.24;45.26;101534.06;5089953;28;20024;-75
2023/05/05 08:30:06;;;;;;;10.13;4.55;;;;;;;27.07;43.36;101530.31;5089927;28;20039;-75
2023/05/05 08:32:32;;;;;;;13.68;5.50;;;;;;;27.96;42.19;101539.88;5089746;28;20389;-75
2023/05/05 08:34:57;;;;;;;9.38;4.18;;;;;;;28.54;40.78;101530.47;5089766;28;20020;-75
2023/05/05 08:37:23;;;;;;;5.45;2.88;;;;;;;28.92;39.89;101539.34;5088978;28;20061;-75
2023/05/05 08:39:48;;;;;;;6.82;4.20;;;;;;;29.21;39.19;101533.59;5088557;28;20114;-74
2023/05/05 08:42:14;;;;;;;8.32;3.95;;;;;;;28.90;38.69;101549.00;5088738;28;20042;-74
2023/05/05 08:44:39;;;;;;;12.73;5.93;;;;;;;28.53;38.57;101539.78;5089380;28;20483;-73
2023/05/05 08:47:07;;;;;;;10.18;4.82;;;;;;;28.32;40.28;101540.13;5087964;28;20047;-74
2023/05/05 08:49:41;;;;;;;7.68;3.60;;;;;;;27.58;42.67;101544.50;5089543;28;20055;-74
2023/05/05 08:52:10;;;;;;;7.47;3.97;;;;;;;25.95;46.66;101551.22;5089402;28;20043;-75
2023/05/05 08:54:41;;;;;;;7.10;3.92;;;;;;;24.91;48.01;101546.41;5089626;28;20024;-75
2023/05/05 08:57:08;;;;;;;11.13;3.60;;;;;;;24.17;48.63;101546.97;5089330;28;20031;-74
2023/05/05 08:59:34;;;;;;;6.35;3.10;;;;;;;23.45;50.92;101546.78;5089057;28;20075;-75
2023/05/05 09:02:01;;;;;;;7.10;3.88;;;;;;;23.02;54.03;101542.47;5088819;28;20032;-78
2023/05/05 09:04:27;;;;;;;9.60;4.53;;;;;;;22.50;55.05;101549.41;5080392;28;20036;-79
2023/05/05 09:06:52;;;;;;;8.50;4.38;;;;;;;22.20;58.16;101553.50;5079587;28;20082;-76
2023/05/05 09:09:19;;;;;;;7.25;3.28;;;;;;;21.79;59.29;101549.50;5081662;28;20068;-74
2023/05/05 09:11:44;;;;;;;7.18;4.25;;;;;;;21.40;58.50;101547.69;5082603;28;20028;-73
2023/05/05 09:14:10;;;;;;;8.20;4.53;;;;;;;21.24;60.46;101541.19;5085933;28;20043;-75
2023/05/05 09:16:42;;;;;;;6.63;4.00;;;;;;;21.09;63.33;101538.31;5087760;28;20069;-74
2023/05/05 09:19:08;;;;;;;10.02;4.30;;;;;;;21.03;64.17;101542.00;5093214;28;20368;-74
2023/05/05 09:21:33;;;;;;;8.27;4.07;;;;;;;20.82;62.01;101554.44;5093110;28;20065;-73
2023/05/05 09:24:06;;;;;;;10.25;3.92;;;;;;;20.94;67.14;101552.47;5093100;28;20880;-73
2023/05/05 09:26:45;;;;;;;7.30;3.47;;;;;;;21.05;63.14;101550.72;5093182;28;20035;-73
2023/05/05 09:29:20;;;;;;;9.38;4.25;;;;;;;21.11;64.93;101552.41;5092590;28;20059;-73
2023/05/05 09:32:04;;;;;;;7.38;3.75;;;;;;;21.32;63.10;101556.22;5092971;28;20077;-74
2023/05/05 09:34:31;;;;;;;7.60;4.15;;;;;;;21.17;65.71;101542.50;5092921;28;20086;-73
2023/05/05 09:36:56;;;;;;;11.60;3.83;;;;;;;21.28;65.18;101559.72;5092961;28;20093;-73
2023/05/05 09:39:22;;;;;;;7.75;3.85;;;;;;;21.24;64.49;101556.66;5092812;28;20036;-73
2023/05/05 09:41:47;;;;;;;8.63;4.82;;;;;;;21.10;62.12;101558.13;5093062;28;20051;-73
2023/05/05 09:44:15;;;;;;;7.25;3.65;;;;;;;21.02;62.62;101562.88;5092934;28;20107;-74
2023/05/05 09:46:51;;;;;;;9.85;4.07;;;;;;;20.98;66.85;101559.00;5092838;28;20486;-74
2023/05/05 09:49:22;;;;;;;9.63;4.50;;;;;;;20.74;63.29;101552.16;5092795;28;20032;-73
2023/05/05 09:51:47;;;;;;;8.45;4.55;;;;;;;20.66;64.96;101549.84;5092756;28;20040;-73
2023/05/05 09:54:27;;;;;;;7.03;4.68;;;;;;;20.59;64.33;101544.59;5092631;28;20039;-73
2023/05/05 09:56:54;;;;;;;13.88;5.30;;;;;;;20.33;66.14;101546.88;5092503;28;20024;-74
2023/05/05 09:59:20;;;;;;;9.70;4.15;;;;;;;20.22;69.45;101549.63;5092443;28;20052;-74
2023/05/05 10:01:47;;;;;;;8.48;4.30;;;;;;;20.16;71.25;101540.59;5092422;28;20028;-74
2023/05/05 10:04:27;;;;;;;9.88;5.05;;;;;;;20.12;68.64;101542.13;5091178;28;20032;-73
2023/05/05 10:06:54;;;;;;;12.13;5.18;;;;;;;20.00;69.78;101546.81;5092222;28;20038;-73
2023/05/05 10:09:20;;;;;;;10.05;5.07;;;;;;;19.95;69.19;101535.88;5090976;28;20117;-74
2023/05/05 10:11:46;;;;;;;9.43;4.38;;;;;;;19.86;68.13;101541.69;5092172;28;20032;-74
2023/05/05 10:14:16;;;;;;;10.35;5.47;;;;;;;19.77;72.71;101535.00;5092307;28;20703;-73
2023/05/05 10:16:50;;;;;;;10.55;4.68;;;;;;;19.85;68.92;101531.09;5092237;28;20035;-74
2023/05/05 10:19:18;;;;;;;11.07;4.65;;;;;;;19.83;74.30;101538.63;5092223;28;20044;-73
2023/05/05 10:21:51;;;;;;;12.23;5.60;;;;;;;19.78;68.24;101530.41;5092189;28;20027;-73
2023/05/05 10:24:39;;;;;;;8.40;4.30;;;;;;;19.79;70.09;101532.88;5091115;28;20032;-73
2023/05/05 10:27:39;;;;;;;10.77;5.20;;;;;;;19.82;68.31;101526.97;5092012;28;20096;-73
2023/05/05 10:30:06;;;;;;;10.25;4.88;;;;;;;19.73;69.68;101533.00;5080485;28;20059;-73
2023/05/05 10:32:48;;;;;;;10.50;4.75;;;;;;;19.80;68.66;101531.00;5091881;28;20407;-73
2023/05/05 10:35:25;;;;;;;11.63;4.82;;;;;;;19.79;73.94;101519.34;5091788;28;20031;-73
2023/05/05 10:37:51;;;;;;;9.90;4.47;;;;;;;19.79;71.18;101523.94;5091870;28;20024;-73
2023/05/05 10:40:20;;;;;;;10.38;4.65;;;;;;;19.74;69.78;101535.47;5091784;28;20028;-73
2023/05/05 10:42:47;;;;;;;9.73;6.07;;;;;;;19.65;74.45;101524.19;5091814;28;20020;-73
2023/05/05 10:45:13;;;;;;;9.40;4.95;;;;;;;19.53;72.05;101528.81;5091808;28;20032;-73
2023/05/05 10:47:39;;;;;;;10.80;5.38;;;;;;;19.43;70.44;101526.72;5091567;28;20090;-74
2023/05/05 10:50:15;;;;;;;16.63;5.20;;;;;;;19.37;74.36;101527.69;5091577;28;20028;-73
2023/05/05 10:53:28;;;;;;;11.48;5.47;;;;;;;19.35;75.32;101526.28;5091491;28;20030;-73
2023/05/05 10:56:15;;;;;;;8.82;4.35;;;;;;;19.14;75.23;101530.44;5078087;28;20401;-73
2023/05/05 10:58:40;;;;;;;7.18;4.35;;;;;;;18.83;79.82;101552.16;5091341;28;20048;-74
2023/05/05 11:01:07;;;;;;;9.45;5.35;;;;;;;18.27;86.94;101568.84;5091280;28;20570;-73
2023/05/05 11:03:33;;;;;;;7.47;3.00;;;;;;;17.62;85.26;101559.50;5091375;28;20039;-73
2023/05/05 11:06:07;;;;;;;7.95;3.75;;;;;;;17.32;84.79;101559.44;5089920;28;20091;-73
2023/05/05 11:08:34;;;;;;;7.53;2.88;;;;;;;17.09;88.02;101555.53;5091159;28;20020;-73
2023/05/05 11:11:01;;;;;;;7.47;3.28;;;;;;;17.02;90.23;101554.75;5091269;28;20028;-74
2023/05/05 11:13:27;;;;;;;9.10;2.92;;;;;;;17.00;91.89;101556.88;5090948;28;20113;-73
2023/05/05 11:15:56;;;;;;;4.90;3.40;;;;;;;16.99;92.65;101565.16;5090982;28;20056;-73
2023/05/05 11:18:36;;;;;;;6.97;3.53;;;;;;;16.99;94.99;101567.84;5091187;28;20040;-73
2023/05/05 11:21:15;;;;;;;9.55;4.60;;;;;;;16.97;95.69;101562.69;5089651;28;20423;-73